Flight Track Log - Related Links

Times and Time Zones

All times are in EDT time to prevent confusion due to time zone crossing. See the C-GEJD flight status page for this flight to view local times or setup timezone preferences in your user account.

Time Position Orientation Groundspeed Altitude Reporting Facility
EDT Latitude Longitude Course Direction KTS MPH feet Rate Location/Type
Thu 01:22:10 PM 47.6167 -52.7000 90° East 90 104 1,300  Level Gander Center
Thu 01:23:10 PM 47.6167 -52.6167 90° East 150 173 4,700 3,550 Climbing Gander Center
Thu 01:24:10 PM 47.6500 -52.6833 307° West 250 288 8,400 3,450 Climbing Gander Center
Thu 01:25:10 PM 47.6333 -52.8000 258° West 280 322 11,600 3,150 Climbing Gander Center
Thu 01:26:10 PM 47.6333 -52.9167 270° West 310 357 14,700 3,600 Climbing Gander Center
Thu 01:27:10 PM 47.6333 -53.0667 270° West 340 391 18,800 3,550 Climbing Gander Center
Thu 01:28:10 PM 47.6333 -53.2167 270° West 360 414 21,800 2,800 Climbing Gander Center
Thu 01:29:10 PM 47.6333 -53.3667 270° West 380 437 24,400 2,300 Climbing Gander Center
Thu 01:30:10 PM 47.6500 -53.5333 279° West 410 472 26,400 1,850 Climbing Gander Center
Thu 01:31:10 PM 47.6500 -53.7333 270° West 450 518 28,100 1,900 Climbing Gander Center
Thu 01:32:10 PM 47.6333 -53.9333 263° West 470 541 30,200 2,050 Climbing Gander Center
Thu 01:33:10 PM 47.6333 -54.1333 270° West 480 552 32,200 2,100 Climbing Gander Center
Thu 01:34:10 PM 47.6333 -54.3333 270° West 480 552 34,400 2,000 Climbing Gander Center
Thu 01:35:10 PM 47.6333 -54.5167 270° West 470 541 36,200 1,700 Climbing Gander Center
Thu 01:36:10 PM 47.6333 -54.6833 270° West 450 518 37,800 1,500 Climbing Gander Center
Thu 01:37:10 PM 47.6333 -54.8833 270° West 440 506 39,200 1,100 Climbing Gander Center
Thu 01:38:10 PM 47.6167 -55.0500 262° West 440 506 40,000 750 Climbing Gander Center
Thu 01:39:10 PM 47.6333 -55.2333 278° West 440 506 40,700 700 Climbing Gander Center
Thu 01:40:10 PM 47.6333 -55.4333 270° West 440 506 41,400 650 Climbing Gander Center
Thu 01:41:10 PM 47.6167 -55.6000 262° West 440 506 42,000 550 Climbing Gander Center
Thu 01:42:10 PM 47.6167 -55.8000 270° West 450 518 42,500 500 Climbing Gander Center
Thu 01:43:10 PM 47.6167 -55.9833 270° West 450 518 43,000 250 Climbing Gander Center
Thu 01:44:10 PM 47.6167 -56.1833 270° West 450 518 43,000  Level Gander Center
Thu 01:44:54 PM 47.6167 -56.3000 270° West 450 518 43,000  Level Moncton Center
Thu 01:45:54 PM 47.6167 -56.5000 270° West 460 529 43,000  Level Moncton Center
Thu 01:46:54 PM 47.6000 -56.6667 262° West 450 518 43,000  Level Moncton Center
Thu 01:47:54 PM 47.6000 -56.8667 270° West 450 518 43,000  Level Moncton Center
Thu 01:48:54 PM 47.6000 -57.0500 270° West 460 529 43,000  Level Moncton Center
Thu 01:49:54 PM 47.5833 -57.2500 263° West 450 518 43,000  Level Moncton Center
Thu 01:50:54 PM 47.5833 -57.4167 270° West 460 529 43,000  Level Moncton Center
Thu 01:51:54 PM 47.5667 -57.6167 263° West 460 529 43,000  Level Moncton Center
Thu 01:52:54 PM 47.5667 -57.8000 270° West 460 529 43,000  Level Moncton Center
Thu 01:53:54 PM 47.5500 -58.0000 263° West 460 529 43,000  Level Moncton Center
Thu 01:54:54 PM 47.5500 -58.2000 270° West 460 529 43,000  Level Moncton Center
Thu 01:57:10 PM 47.5333 -58.6167 267° West 470 541 43,000  Level Gander Center
Thu 01:58:10 PM 47.5167 -58.8167 263° West 470 541 43,000  Level Gander Center
Thu 01:59:10 PM 47.5167 -59.0000 270° West 460 529 43,000  Level Gander Center
Thu 02:00:10 PM 47.5167 -59.1833 270° West 470 541 43,000  Level Gander Center
Thu 02:01:10 PM 47.5000 -59.3833 263° West 470 541 43,000  Level Gander Center
Thu 02:02:10 PM 47.4833 -59.5833 263° West 470 541 43,000  Level Gander Center
Thu 02:03:10 PM 47.4833 -59.7500 270° West 470 541 43,000  Level Gander Center
Thu 02:04:10 PM 47.4667 -59.9500 263° West 460 529 43,000  Level Gander Center
Thu 02:05:10 PM 47.4500 -60.1167 262° West 460 529 43,000  Level Gander Center
Thu 02:06:10 PM 47.4500 -60.3167 270° West 460 529 43,000  Level Gander Center
Thu 02:07:10 PM 47.4500 -60.5167 270° West 470 541 43,000  Level Gander Center
Thu 02:08:10 PM 47.4333 -60.7167 263° West 460 529 43,000  Level Gander Center
Thu 02:09:10 PM 47.4167 -60.8833 262° West 450 518 43,000  Level Gander Center
Thu 02:10:10 PM 47.4000 -61.0833 263° West 450 518 43,000  Level Gander Center
Thu 02:11:10 PM 47.4000 -61.2500 270° West 460 529 43,000  Level Gander Center
Thu 02:12:10 PM 47.3833 -61.4500 263° West 460 529 43,000  Level Gander Center
Thu 02:13:10 PM 47.3667 -61.6500 263° West 460 529 43,000  Level Gander Center
Thu 02:14:10 PM 47.3500 -61.8500 263° West 470 541 43,000  Level Gander Center
Thu 02:15:10 PM 47.3500 -62.0167 270° West 470 541 43,000  Level Gander Center
Thu 02:16:10 PM 47.3333 -62.2167 263° West 470 541 43,000  Level Gander Center
Thu 02:17:10 PM 47.3000 -62.4167 256° West 470 541 43,000  Level Gander Center
Thu 02:18:10 PM 47.2833 -62.5833 262° West 470 541 43,000  Level Gander Center
Thu 02:19:10 PM 47.2833 -62.8167 270° West 470 541 43,000  Level Gander Center
Thu 02:20:10 PM 47.2667 -62.9833 262° West 470 541 43,000  Level Gander Center
Thu 02:21:10 PM 47.2500 -63.1833 263° West 470 541 43,000  Level Gander Center
Thu 02:22:10 PM 47.2333 -63.3667 262° West 460 529 43,000  Level Gander Center
Thu 02:23:10 PM 47.2167 -63.5667 263° West 460 529 43,000  Level Gander Center
Thu 02:24:10 PM 47.2000 -63.7333 262° West 460 529 43,000  Level Gander Center
Thu 02:24:54 PM 47.1833 -63.8833 261° West 460 529 43,000  Level Moncton Center
Thu 02:25:54 PM 47.1667 -64.0833 263° West 460 529 43,000  Level Moncton Center
Thu 02:26:54 PM 47.1500 -64.2500 262° West 460 529 43,000  Level Moncton Center
Thu 02:27:54 PM 47.1333 -64.4500 263° West 460 529 43,000  Level Moncton Center
Thu 02:28:54 PM 47.1167 -64.6167 262° West 460 529 43,000  Level Moncton Center
Thu 02:29:54 PM 47.1000 -64.8167 263° West 460 529 43,000  Level Moncton Center
Thu 02:30:54 PM 47.0833 -64.9833 262° West 460 529 43,000  Level Moncton Center
Thu 02:31:54 PM 47.0667 -65.1833 263° West 460 529 43,000  Level Moncton Center
Thu 02:32:54 PM 47.0500 -65.3833 263° West 460 529 43,000  Level Moncton Center
Thu 02:33:54 PM 47.0167 -65.5500 254° West 460 529 43,000  Level Moncton Center
Thu 02:34:54 PM 47.0000 -65.7500 263° West 460 529 43,000  Level Moncton Center
Thu 02:35:54 PM 46.9833 -65.9167 262° West 460 529 43,000  Level Moncton Center
Thu 02:36:54 PM 46.9667 -66.1167 263° West 460 529 43,000  Level Moncton Center
Thu 02:37:54 PM 46.9500 -66.2833 262° West 460 529 43,000  Level Moncton Center
Thu 02:38:54 PM 46.9333 -66.4833 263° West 460 529 43,000  Level Moncton Center
Thu 02:39:54 PM 46.9000 -66.6500 254° West 460 529 43,000  Level Moncton Center
Thu 02:40:54 PM 46.8833 -66.8500 263° West 460 529 43,000  Level Moncton Center
Thu 02:41:54 PM 46.8667 -67.0333 262° West 460 529 43,000  Level Moncton Center
Thu 02:42:54 PM 46.8333 -67.2167 255° West 460 529 43,000  Level Moncton Center
Thu 02:43:54 PM 46.7667 -67.3833 240° Southwest 460 529 43,000  Level Moncton Center
Thu 02:44:54 PM 46.7333 -67.5667 255° West 460 529 43,000  Level Moncton Center
Thu 02:45:52 PM 46.7194 -67.7133 262° West 472 543 43,000  Level Boston Center
Thu 02:46:53 PM 46.6764 -67.8925 251° West 472 543 43,000  Level Boston Center
Thu 02:47:53 PM 46.6297 -68.0897 251° West 480 552 43,000  Level Boston Center
Thu 02:48:54 PM 46.5883 -68.2681 251° West 475 547 43,000  Level Boston Center
Thu 02:49:51 PM 46.5444 -68.4433 250° West 470 541 43,000  Level Boston Center
Thu 02:50:52 PM 46.5003 -68.6183 250° West 470 541 43,000  Level Boston Center
Thu 02:51:52 PM 46.4581 -68.7931 251° West 470 541 43,000  Level Boston Center
Thu 02:52:53 PM 46.4153 -68.9675 250° West 470 541 43,000  Level Boston Center
Thu 02:53:54 PM 46.3703 -69.1417 250° West 470 541 43,000  Level Boston Center
Thu 02:54:54 PM 46.3289 -69.3003 249° West 470 541 43,000  Level Boston Center
Thu 02:55:51 PM 46.2836 -69.4769 250° West 470 541 43,000  Level Boston Center
Thu 02:57:04 PM 46.2400 -69.6472 250° West 470 541 43,000  Level Boston Center
Thu 02:58:04 PM 46.1864 -69.8597 250° West 470 541 43,000  Level Boston Center
Thu 02:59:05 PM 46.1403 -70.0325 249° West 475 547 43,000  Level Boston Center
Thu 02:59:55 PM 46.0833 -70.1667 239° Southwest 460 529 43,000  Level Montreal Center
Thu 03:00:55 PM 46.0500 -70.3333 254° West 460 529 43,000  Level Montreal Center
Thu 03:01:55 PM 46.0000 -70.5167 249° West 460 529 43,000  Level Montreal Center
Thu 03:02:55 PM 45.9500 -70.6833 247° West 460 529 43,000  Level Montreal Center
Thu 03:03:55 PM 45.9000 -70.8667 249° West 460 529 43,000  Level Montreal Center
Thu 03:04:55 PM 45.9000 -71.0333 270° West 450 518 43,000 -250 Level Montreal Center
Thu 03:05:55 PM 45.8667 -71.2167 255° West 450 518 42,500 -1,400 Descending Montreal Center
Thu 03:06:55 PM 45.8667 -71.4000 270° West 440 506 40,200 -2,400 Descending Montreal Center
Thu 03:07:55 PM 45.8500 -71.5667 262° West 430 495 37,700 -2,500 Descending Montreal Center
Thu 03:08:55 PM 45.8333 -71.7333 262° West 430 495 35,200 -2,450 Descending Montreal Center
Thu 03:09:55 PM 45.8167 -71.9000 262° West 420 483 32,800 -2,450 Descending Montreal Center
Thu 03:10:55 PM 45.8000 -72.0667 262° West 420 483 30,300 -2,450 Descending Montreal Center
Thu 03:11:55 PM 45.7833 -72.2500 263° West 430 495 27,900 -2,500 Descending Montreal Center
Thu 03:12:55 PM 45.7667 -72.4167 262° West 440 506 25,300 -2,600 Descending Montreal Center
Thu 03:13:55 PM 45.7500 -72.5833 262° West 440 506 22,700 -2,500 Descending Montreal Center
Thu 03:14:55 PM 45.7333 -72.7500 262° West 430 495 20,300 -2,450 Descending Montreal Center
Thu 03:15:55 PM 45.7167 -72.9167 262° West 400 460 17,800 -2,300 Descending Montreal Center
Thu 03:16:55 PM 45.7000 -73.0667 261° West 360 414 15,700 -2,000 Descending Montreal Center
Thu 03:17:55 PM 45.6667 -73.1833 248° West 320 368 13,800 -1,900 Descending Montreal Center
Thu 03:18:55 PM 45.6333 -73.2833 245° Southwest 300 345 11,900 -1,800 Descending Montreal Center
Thu 03:19:55 PM 45.5833 -73.3833 234° Southwest 290 334 10,200 -1,700 Descending Montreal Center
Thu 03:20:55 PM 45.5333 -73.4500 223° Southwest 280 322 8,500 -1,100 Descending Montreal Center
Thu 03:21:55 PM 45.4667 -73.5333 221° Southwest 270 311 8,000 -600 Descending Montreal Center
Thu 03:22:55 PM 45.4333 -73.6000 235° Southwest 230 265 7,300 -2,150 Descending Montreal Center
Thu 03:23:55 PM 45.3667 -73.6833 221° Southwest 250 288 3,700 -2,150 Descending Montreal Center
Thu 03:24:55 PM 45.3500 -73.7333 245° Southwest 180 207 3,000 -500 Descending Montreal Center
Thu 03:25:55 PM 45.3667 -73.7667 305° West 140 161 2,700 -850 Descending Montreal Center
Thu 03:26:55 PM 45.4000 -73.7667 360° North 140 161 1,300 -1,050 Descending Montreal Center
Thu 03:27:55 PM 45.4333 -73.7500 19° North 130 150 600 -600 Descending Montreal Center
Thu 03:28:55 PM 45.4500 -73.7167 55° Northeast 100 115 100 -250 Descending Montreal Center
Thu 03:29:55 PM 45.4500 -73.7000 90° East 120 138 100  Level Montreal Center

Login

Don't have an account? Register now (free) for customized features, flight alerts, and more!